Time;durP1;ratioP1;P1;durP2;ratioP2;P2;SDS_P1;SDS_P2;PMS_P1;PMS_P2;Temp;Humidity;BMP_temperature;BMP_pressure;BME280_temperature;BME280_humidity;BME280_pressure;Samples;Min_cycle;Max_cycle;Signal;HPM_P1;HPM_P2
2022/08/28 00:01:14;;;;;;;16.27;8.25;;;11.30;99.90;;;;;;5072307;28;20041;-62
2022/08/28 00:03:40;;;;;;;36.00;7.47;;;11.30;99.90;;;;;;5072574;28;20047;-62
2022/08/28 00:06:06;;;;;;;10.65;5.05;;;11.30;99.90;;;;;;5071172;28;20056;-62
2022/08/28 00:08:32;;;;;;;29.23;6.55;;;11.30;99.90;;;;;;5071065;28;20124;-62
2022/08/28 00:10:58;;;;;;;25.35;8.55;;;11.20;99.90;;;;;;5072229;28;20162;-62
2022/08/28 00:13:24;;;;;;;10.60;5.63;;;11.20;99.90;;;;;;5071027;28;20044;-62
2022/08/28 00:15:56;;;;;;;129.13;14.90;;;11.20;99.90;;;;;;5068673;28;20497;-62
2022/08/28 00:18:23;;;;;;;13.18;6.25;;;11.20;99.90;;;;;;5072375;28;20051;-62
2022/08/28 00:20:50;;;;;;;239.60;16.55;;;11.20;99.90;;;;;;5070948;28;20041;-62
2022/08/28 00:23:16;;;;;;;107.63;9.38;;;11.20;99.90;;;;;;5070836;28;20048;-62
2022/08/28 00:25:42;;;;;;;321.70;18.70;;;11.10;99.90;;;;;;5072276;28;20032;-63
2022/08/28 00:28:10;;;;;;;44.25;5.38;;;11.10;99.90;;;;;;5074239;28;20059;-62
2022/08/28 00:30:45;;;;;;;52.90;5.20;;;11.00;99.90;;;;;;5074379;28;20041;-63
2022/08/28 00:33:14;;;;;;;356.33;22.48;;;11.00;99.90;;;;;;5074719;28;20033;-62
2022/08/28 00:35:41;;;;;;;7.25;3.25;;;11.00;99.90;;;;;;5074383;28;20096;-62
2022/08/28 00:38:08;;;;;;;5.70;2.50;;;11.00;99.90;;;;;;5075628;28;20405;-62
2022/08/28 00:40:37;;;;;;;128.20;10.10;;;10.90;99.90;;;;;;5057892;28;20126;-62
2022/08/28 00:43:06;;;;;;;3.33;2.35;;;10.90;99.90;;;;;;5074168;28;20051;-62
2022/08/28 00:45:32;;;;;;;22.17;3.30;;;10.80;99.90;;;;;;5055192;28;20040;-62
2022/08/28 00:47:59;;;;;;;43.95;4.80;;;10.80;99.90;;;;;;5075543;28;20045;-62
2022/08/28 00:50:28;;;;;;;16.80;3.33;;;10.80;99.90;;;;;;5057643;28;20036;-62
2022/08/28 00:52:58;;;;;;;163.68;11.15;;;10.80;99.90;;;;;;5074432;28;20059;-63
2022/08/28 00:55:26;;;;;;;;;;;10.70;99.90;;;;;;5057669;28;20048;-62
2022/08/28 00:57:55;;;;;;;62.38;5.35;;;10.70;99.90;;;;;;5075230;28;19923;-62
2022/08/28 01:00:31;;;;;;;188.32;11.48;;;10.60;99.90;;;;;;5074161;28;20047;-63
2022/08/28 01:02:58;;;;;;;117.82;8.15;;;10.60;99.90;;;;;;5075172;28;20037;-62
2022/08/28 01:05:25;;;;;;;95.20;6.68;;;10.50;99.90;;;;;;5073888;28;20044;-63
2022/08/28 01:07:51;;;;;;;83.57;6.07;;;10.40;99.90;;;;;;5073436;28;20060;-63
2022/08/28 01:10:21;;;;;;;74.88;6.43;;;10.40;99.90;;;;;;5075115;28;20044;-63
2022/08/28 01:12:48;;;;;;;114.68;8.77;;;10.40;99.90;;;;;;5074036;28;20059;-63
2022/08/28 01:15:18;;;;;;;218.82;14.93;;;10.40;99.90;;;;;;5054715;28;20043;-63
2022/08/28 01:17:52;;;;;;;76.93;6.70;;;10.40;99.90;;;;;;5073626;28;20131;-63
2022/08/28 01:20:22;;;;;;;204.07;14.05;;;10.40;99.90;;;;;;5073427;28;20102;-63
2022/08/28 01:23:32;;;;;;;71.45;7.88;;;10.40;99.90;;;;;;5073709;28;20484;-63
2022/08/28 01:25:59;;;;;;;51.85;6.35;;;10.40;99.90;;;;;;4976829;28;20050;-63
2022/08/28 01:28:24;;;;;;;118.60;9.73;;;10.40;99.90;;;;;;5053077;28;20377;-63
2022/08/28 01:30:51;;;;;;;131.10;9.00;;;10.40;99.90;;;;;;5073169;28;20055;-62
2022/08/28 01:33:18;;;;;;;12.95;3.03;;;10.40;99.90;;;;;;5073290;28;20041;-63
2022/08/28 01:35:46;;;;;;;137.90;9.02;;;10.40;99.90;;;;;;5073216;28;20048;-63
2022/08/28 01:38:13;;;;;;;139.98;10.25;;;10.40;99.90;;;;;;5072857;28;20124;-63
2022/08/28 01:40:43;;;;;;;167.20;12.00;;;10.40;99.90;;;;;;5074590;28;20409;-63
2022/08/28 01:43:16;;;;;;;12.88;2.75;;;10.40;99.90;;;;;;5074319;28;20037;-63
2022/08/28 01:45:46;;;;;;;33.85;3.85;;;10.40;99.90;;;;;;5070808;28;20044;-62
2022/08/28 01:48:13;;;;;;;205.35;17.10;;;10.30;99.90;;;;;;5072917;28;20047;-63
2022/08/28 01:50:40;;;;;;;43.92;5.38;;;10.30;99.90;;;;;;5073172;28;20123;-63
2022/08/28 01:53:07;;;;;;;37.55;4.40;;;10.20;99.90;;;;;;5072898;28;20042;-63
2022/08/28 01:55:34;;;;;;;28.45;3.28;;;10.20;99.90;;;;;;5073075;28;20041;-63
2022/08/28 01:58:02;;;;;;;120.15;8.80;;;10.20;99.90;;;;;;5074015;28;20040;-63
2022/08/28 02:00:28;;;;;;;117.60;8.05;;;10.20;99.90;;;;;;5072666;28;20040;-63
2022/08/28 02:02:57;;;;;;;59.25;5.75;;;10.20;99.90;;;;;;5072841;28;20439;-62
2022/08/28 02:05:28;;;;;;;88.13;9.00;;;10.20;99.90;;;;;;5072979;28;20041;-63
2022/08/28 02:07:56;;;;;;;153.77;15.38;;;10.20;99.90;;;;;;5072375;28;20119;-62
2022/08/28 02:10:24;;;;;;;135.20;13.55;;;10.20;99.90;;;;;;5073785;28;20093;-63
2022/08/28 02:12:54;;;;;;;16.65;4.35;;;10.10;99.90;;;;;;5072543;28;20040;-63
2022/08/28 02:15:21;;;;;;;;;;;10.20;99.90;;;;;;5070693;28;20072;-63
2022/08/28 02:17:47;;;;;;;23.25;5.20;;;10.10;99.90;;;;;;5073835;28;19916;-63
2022/08/28 02:20:13;;;;;;;7.70;3.78;;;10.20;99.90;;;;;;5072492;28;20516;-63
2022/08/28 02:22:39;;;;;;;6.72;3.22;;;10.20;99.90;;;;;;5073608;28;20041;-63
2022/08/28 02:25:07;;;;;;;2.15;1.45;;;10.10;99.90;;;;;;5055645;28;20042;-63
2022/08/28 02:27:33;;;;;;;54.00;6.47;;;10.20;99.90;;;;;;5072383;28;20042;-63
2022/08/28 02:29:59;;;;;;;20.35;2.70;;;10.10;99.90;;;;;;5072208;28;20543;-63
2022/08/28 02:32:26;;;;;;;7.38;1.92;;;10.20;99.90;;;;;;5072052;28;20033;-63
2022/08/28 02:34:52;;;;;;;3.58;1.90;;;10.10;99.90;;;;;;5072000;28;20044;-63
2022/08/28 02:37:19;;;;;;;4.80;1.83;;;10.10;99.90;;;;;;5073288;28;20036;-63
2022/08/28 02:39:45;;;;;;;4.05;2.03;;;10.00;99.90;;;;;;5073193;28;20385;-63
2022/08/28 02:42:11;;;;;;;4.80;1.65;;;10.00;99.90;;;;;;5071958;28;20044;-63
2022/08/28 02:44:37;;;;;;;152.90;8.52;;;10.00;99.90;;;;;;5071015;28;20047;-63
2022/08/28 02:47:04;;;;;;;100.65;5.57;;;10.00;99.90;;;;;;5072085;28;20079;-63
2022/08/28 02:49:30;;;;;;;289.30;15.60;;;10.00;99.90;;;;;;5054763;28;20378;-63
2022/08/28 02:51:57;;;;;;;129.88;9.30;;;9.90;99.90;;;;;;5055253;28;20036;-64
2022/08/28 02:54:25;;;;;;;12.75;3.50;;;9.90;99.90;;;;;;5072986;28;20098;-63
2022/08/28 02:56:51;;;;;;;104.93;6.35;;;9.90;99.90;;;;;;5071705;28;20040;-63
2022/08/28 02:59:17;;;;;;;60.28;5.45;;;9.90;99.90;;;;;;5073109;28;20545;-63
2022/08/28 03:01:44;;;;;;;97.00;6.13;;;9.90;99.90;;;;;;5072935;28;20112;-63
2022/08/28 03:04:10;;;;;;;30.58;3.58;;;9.90;99.90;;;;;;5073040;28;20072;-63
2022/08/28 03:06:36;;;;;;;30.95;3.55;;;9.90;99.90;;;;;;5081194;28;20092;-63
2022/08/28 03:09:05;;;;;;;4.85;1.92;;;9.90;99.90;;;;;;5093097;28;20452;-63
2022/08/28 03:11:31;;;;;;;128.02;8.63;;;9.80;99.90;;;;;;5074966;28;20485;-63
2022/08/28 03:13:56;;;;;;;57.75;4.57;;;9.80;99.90;;;;;;5090909;28;20082;-63
2022/08/28 03:16:24;;;;;;;39.80;4.15;;;9.70;99.90;;;;;;5074840;28;20415;-63
2022/08/28 03:18:50;;;;;;;185.38;10.65;;;9.70;99.90;;;;;;5092953;28;20040;-63
2022/08/28 03:21:16;;;;;;;171.55;10.65;;;9.70;99.90;;;;;;5074717;28;20055;-63
2022/08/28 03:23:42;;;;;;;43.70;4.95;;;9.70;99.90;;;;;;5092896;28;20113;-63
2022/08/28 03:26:11;;;;;;;58.55;5.53;;;9.70;99.90;;;;;;5058062;28;20044;-64
2022/08/28 03:28:46;;;;;;;11.52;4.40;;;9.80;99.90;;;;;;5074663;28;20078;-63
2022/08/28 03:31:14;;;;;;;5.30;1.85;;;9.80;99.90;;;;;;5074877;28;20064;-63
2022/08/28 03:33:41;;;;;;;25.38;3.42;;;9.80;99.90;;;;;;5074766;28;20111;-63
2022/08/28 03:36:08;;;;;;;53.85;4.25;;;9.80;99.90;;;;;;5074916;28;20162;-63
2022/08/28 03:38:34;;;;;;;23.05;2.50;;;9.80;99.90;;;;;;5074906;28;20040;-63
2022/08/28 03:41:00;;;;;;;44.45;3.83;;;9.80;99.90;;;;;;5092884;28;20395;-63
2022/08/28 03:43:26;;;;;;;107.72;7.63;;;9.80;99.90;;;;;;5057895;28;20039;-63
2022/08/28 03:45:58;;;;;;;297.45;17.02;;;9.80;99.90;;;;;;5072653;28;20043;-64
2022/08/28 03:48:30;;;;;;;85.78;6.75;;;9.80;99.90;;;;;;5092583;28;20049;-63
2022/08/28 03:50:57;;;;;;;70.18;5.57;;;9.80;99.90;;;;;;5074828;28;20059;-63
2022/08/28 03:53:24;;;;;;;5.22;3.22;;;9.80;99.90;;;;;;5074805;28;20036;-63
2022/08/28 03:55:52;;;;;;;4.03;1.80;;;9.80;99.90;;;;;;5074714;28;20040;-63
2022/08/28 03:58:18;;;;;;;163.27;8.85;;;9.80;99.90;;;;;;5092521;28;20123;-63
2022/08/28 04:00:45;;;;;;;232.18;12.63;;;9.80;99.90;;;;;;5076551;28;20131;-63
2022/08/28 04:03:12;;;;;;;334.50;17.02;;;9.80;99.90;;;;;;5078200;28;20047;-63
2022/08/28 04:05:42;;;;;;;79.57;5.95;;;9.80;99.90;;;;;;5078358;28;20380;-63
2022/08/28 04:08:09;;;;;;;122.57;8.10;;;9.80;99.90;;;;;;5078195;28;20048;-63
2022/08/28 04:10:35;;;;;;;135.45;8.52;;;9.70;99.90;;;;;;5061441;28;20040;-63
2022/08/28 04:13:02;;;;;;;210.82;15.07;;;9.70;99.90;;;;;;5078145;28;20070;-63
2022/08/28 04:15:28;;;;;;;72.95;9.20;;;9.70;99.90;;;;;;5075744;28;20046;-63
2022/08/28 04:17:54;;;;;;;61.35;6.25;;;9.70;99.90;;;;;;5061287;28;20558;-64
2022/08/28 04:20:20;;;;;;;206.40;14.40;;;9.70;99.90;;;;;;5077922;28;20047;-63
2022/08/28 04:22:47;;;;;;;73.30;7.80;;;9.70;99.90;;;;;;5077824;28;20044;-64
2022/08/28 04:25:13;;;;;;;44.90;6.40;;;9.70;99.90;;;;;;5078067;28;20136;-63
2022/08/28 04:27:40;;;;;;;79.57;8.82;;;9.70;99.90;;;;;;5077730;28;20093;-64
2022/08/28 04:30:06;;;;;;;14.15;5.32;;;9.70;99.90;;;;;;5061059;28;20032;-64
2022/08/28 04:32:37;;;;;;;60.35;8.98;;;9.70;99.90;;;;;;5096150;28;20126;-63
2022/08/28 04:35:05;;;;;;;41.33;7.85;;;9.70;99.90;;;;;;5096137;28;20388;-64
2022/08/28 04:37:31;;;;;;;399.08;26.90;;;9.70;99.90;;;;;;5077878;28;20493;-63
2022/08/28 04:39:57;;;;;;;12.93;6.00;;;9.70;99.90;;;;;;5077648;28;20082;-63
2022/08/28 04:42:23;;;;;;;370.77;25.77;;;9.70;99.90;;;;;;5077842;28;20040;-64
2022/08/28 04:44:49;;;;;;;65.53;6.78;;;9.70;99.90;;;;;;5058681;28;20044;-64
2022/08/28 04:47:15;;;;;;;17.80;6.95;;;9.70;99.90;;;;;;5095745;28;20036;-63
2022/08/28 04:49:41;;;;;;;23.27;8.65;;;9.70;99.90;;;;;;5061109;28;20032;-63
2022/08/28 04:52:07;;;;;;;22.17;8.30;;;9.70;99.90;;;;;;5077564;28;20396;-64
2022/08/28 04:54:33;;;;;;;18.00;7.80;;;9.80;99.90;;;;;;5077535;28;20094;-64
2022/08/28 04:57:01;;;;;;;17.40;8.82;;;9.80;99.90;;;;;;5077333;28;20132;-63
2022/08/28 04:59:28;;;;;;;13.57;7.15;;;9.80;99.90;;;;;;5077234;28;20044;-63
2022/08/28 05:01:54;;;;;;;20.42;8.35;;;9.70;99.90;;;;;;5095371;28;20048;-63
2022/08/28 05:04:20;;;;;;;15.55;7.93;;;9.70;99.90;;;;;;5095444;28;20044;-64
2022/08/28 05:06:46;;;;;;;12.82;6.20;;;9.70;99.90;;;;;;5094952;28;20047;-64
2022/08/28 05:09:15;;;;;;;12.10;6.93;;;9.70;99.90;;;;;;5077414;28;20427;-64
2022/08/28 05:11:41;;;;;;;9.82;5.35;;;9.80;99.90;;;;;;5076711;28;20043;-64
2022/08/28 05:14:08;;;;;;;12.88;6.25;;;9.70;99.90;;;;;;5074958;28;20138;-64
2022/08/28 05:16:46;;;;;;;10.15;6.82;;;9.80;99.90;;;;;;5077105;28;20467;-64
2022/08/28 05:19:13;;;;;;;18.63;8.55;;;9.90;99.90;;;;;;5077046;28;20085;-64
2022/08/28 05:21:39;;;;;;;16.60;6.45;;;9.90;99.90;;;;;;5095082;28;20043;-64
2022/08/28 05:24:06;;;;;;;16.30;7.10;;;10.00;99.90;;;;;;5076852;28;20095;-63
2022/08/28 05:26:32;;;;;;;18.08;7.32;;;10.10;99.90;;;;;;5076753;28;20040;-63
2022/08/28 05:28:58;;;;;;;13.15;7.00;;;10.10;99.90;;;;;;5077027;28;20043;-64
2022/08/28 05:31:26;;;;;;;13.77;6.40;;;10.20;99.90;;;;;;5060346;28;20055;-64
2022/08/28 05:33:52;;;;;;;18.55;7.10;;;10.30;99.90;;;;;;5076692;28;20040;-63
2022/08/28 05:36:21;;;;;;;9.35;5.70;;;10.30;99.90;;;;;;5059873;28;20595;-63
2022/08/28 05:38:48;;;;;;;17.70;7.13;;;10.40;99.90;;;;;;5076697;28;20040;-63
2022/08/28 05:41:22;;;;;;;12.13;6.40;;;10.50;99.90;;;;;;5076599;28;20039;-63
2022/08/28 05:43:49;;;;;;;16.92;7.07;;;10.70;99.90;;;;;;5093560;28;20438;-63
2022/08/28 05:46:16;;;;;;;10.00;5.82;;;10.80;99.90;;;;;;5075704;28;20515;-63
2022/08/28 05:48:44;;;;;;;15.88;5.28;;;10.90;99.90;;;;;;5076254;28;20653;-63
2022/08/28 05:51:14;;;;;;;9.02;5.38;;;11.00;99.90;;;;;;5076273;28;20097;-63
2022/08/28 05:53:42;;;;;;;10.32;5.50;;;11.10;99.90;;;;;;5076164;28;20484;-62
2022/08/28 05:56:09;;;;;;;10.60;5.20;;;11.30;99.90;;;;;;5076463;28;20036;-63
2022/08/28 05:58:36;;;;;;;12.25;6.05;;;11.40;99.90;;;;;;5076389;28;20040;-63
2022/08/28 06:01:18;;;;;;;10.15;4.85;;;11.60;99.90;;;;;;5076065;28;20075;-63
2022/08/28 06:04:16;;;;;;;13.10;4.72;;;11.70;99.90;;;;;;5094277;28;20496;-62
2022/08/28 06:06:43;;;;;;;10.23;3.80;;;11.90;99.90;;;;;;5055070;28;20122;-65
2022/08/28 06:09:16;;;;;;;10.57;4.05;;;12.10;99.90;;;;;;5076728;28;20042;-64
2022/08/28 06:11:43;;;;;;;8.45;3.50;;;12.30;99.90;;;;;;5076181;28;20093;-64
2022/08/28 06:14:10;;;;;;;10.18;2.70;;;12.60;99.90;;;;;;5073711;28;20043;-64
2022/08/28 06:16:44;;;;;;;7.85;2.85;;;13.00;99.90;;;;;;5075877;28;20036;-64
2022/08/28 06:19:11;;;;;;;6.35;2.97;;;13.20;99.90;;;;;;5076091;28;20051;-65
2022/08/28 06:21:40;;;;;;;10.00;2.85;;;13.60;99.90;;;;;;5076041;28;20035;-64
2022/08/28 06:24:07;;;;;;;7.70;2.42;;;14.00;99.90;;;;;;5093007;28;20518;-64
2022/08/28 06:26:33;;;;;;;7.78;2.72;;;14.50;99.90;;;;;;5059341;28;20036;-64
2022/08/28 06:29:09;;;;;;;6.72;2.20;;;15.10;99.90;;;;;;5075438;28;20614;-64
2022/08/28 06:31:35;;;;;;;7.30;2.05;;;15.50;99.90;;;;;;5075576;28;20046;-64
2022/08/28 06:34:02;;;;;;;5.70;2.05;;;15.80;99.90;;;;;;5093950;28;20068;-64
2022/08/28 06:36:29;;;;;;;6.38;2.00;;;16.10;99.90;;;;;;5075692;28;20039;-64
2022/08/28 06:39:00;;;;;;;4.50;1.83;;;16.30;99.90;;;;;;5075497;28;20044;-64
2022/08/28 06:41:26;;;;;;;6.43;2.05;;;16.50;99.90;;;;;;5075614;28;20044;-64
2022/08/28 06:43:53;;;;;;;4.90;2.28;;;16.80;99.90;;;;;;5057213;28;20077;-64
2022/08/28 06:46:20;;;;;;;6.35;2.05;;;16.90;99.90;;;;;;5058441;28;20096;-63
2022/08/28 06:48:46;;;;;;;3.90;1.52;;;17.00;99.90;;;;;;5075073;28;20044;-63
2022/08/28 06:51:12;;;;;;;4.72;1.50;;;17.10;99.90;;;;;;5058761;28;20047;-63
2022/08/28 06:53:40;;;;;;;6.10;1.70;;;17.10;99.90;;;;;;5075380;28;20032;-63
2022/08/28 06:56:10;;;;;;;7.50;2.15;;;17.20;99.90;;;;;;5093366;28;20063;-63
2022/08/28 06:58:40;;;;;;;6.55;1.58;;;17.30;99.90;;;;;;5093482;28;20040;-63
2022/08/28 07:01:09;;;;;;;7.63;1.83;;;17.30;99.90;;;;;;5093132;28;20043;-64
2022/08/28 07:03:36;;;;;;;6.27;2.10;;;17.30;99.90;;;;;;5075000;28;20097;-64
2022/08/28 07:06:03;;;;;;;8.27;1.60;;;17.10;99.90;;;;;;5092900;28;20492;-63
2022/08/28 07:08:30;;;;;;;10.73;2.05;;;17.00;99.90;;;;;;5058312;28;20403;-63
2022/08/28 07:10:58;;;;;;;6.60;1.75;;;16.90;99.90;;;;;;5074945;28;20044;-63
2022/08/28 07:13:24;;;;;;;8.40;1.83;;;16.80;99.90;;;;;;5058327;28;20089;-64
2022/08/28 07:15:51;;;;;;;6.20;1.80;;;16.80;99.90;;;;;;5056029;28;20052;-62
2022/08/28 07:18:17;;;;;;;5.68;1.55;;;16.80;99.90;;;;;;5093038;28;20036;-63
2022/08/28 07:20:44;;;;;;;6.47;2.25;;;16.80;99.90;;;;;;5074847;28;20094;-64
2022/08/28 07:23:10;;;;;;;5.30;1.40;;;16.80;99.90;;;;;;5075099;28;20039;-64
2022/08/28 07:25:40;;;;;;;8.55;1.92;;;16.80;99.90;;;;;;5075055;28;20036;-65
2022/08/28 07:28:07;;;;;;;;;;;16.90;99.90;;;;;;5075076;28;20049;-64
2022/08/28 07:30:32;;;;;;;6.15;1.42;;;16.90;99.90;;;;;;5093157;28;19970;-63
2022/08/28 07:32:58;;;;;;;9.27;1.65;;;16.90;99.90;;;;;;5057421;28;20036;-64
2022/08/28 07:35:25;;;;;;;5.63;1.90;;;17.00;99.90;;;;;;5076087;28;20541;-63
2022/08/28 07:37:50;;;;;;;6.03;2.15;;;17.10;99.90;;;;;;5095987;28;20044;-63
2022/08/28 07:40:18;;;;;;;6.43;1.65;;;17.10;99.90;;;;;;5096682;28;20043;-63
2022/08/28 07:45:43;;;;;;;4.88;1.73;;;17.40;99.90;;;;;;4990247;28;20051;-64
2022/08/28 07:48:08;;;;;;;5.93;1.77;;;17.40;99.90;;;;;;5096410;28;20140;-64
2022/08/28 07:50:40;;;;;;;4.63;1.58;;;17.60;99.90;;;;;;5061551;28;20079;-63
2022/08/28 07:53:06;;;;;;;7.60;1.95;;;17.60;99.90;;;;;;5078363;28;20046;-63
2022/08/28 07:55:32;;;;;;;4.38;1.30;;;17.80;99.90;;;;;;5078597;28;20028;-63
2022/08/28 07:57:58;;;;;;;5.00;1.38;;;18.10;99.90;;;;;;5096523;28;20453;-64
2022/08/28 08:00:24;;;;;;;6.57;1.67;;;18.30;99.90;;;;;;5096519;28;20044;-63
2022/08/28 08:02:50;;;;;;;4.20;1.75;;;18.60;99.90;;;;;;5096308;28;20410;-64
2022/08/28 08:05:16;;;;;;;4.88;1.48;;;18.80;99.90;;;;;;5061622;28;20086;-64
2022/08/28 08:07:42;;;;;;;5.13;1.45;;;18.90;99.90;;;;;;5077541;28;20056;-64
2022/08/28 08:10:12;;;;;;;6.28;1.90;;;18.90;99.90;;;;;;5075933;28;20119;-64
2022/08/28 08:12:38;;;;;;;5.72;1.65;;;19.00;99.90;;;;;;5096140;28;20108;-66
2022/08/28 08:15:04;;;;;;;8.75;1.90;;;19.20;99.90;;;;;;5054496;28;20131;-63
2022/08/28 08:17:30;;;;;;;4.20;1.10;;;19.50;99.90;;;;;;5078120;28;20458;-66
2022/08/28 08:19:56;;;;;;;9.10;1.73;;;19.70;99.90;;;;;;5078094;28;20050;-66
2022/08/28 08:22:21;;;;;;;5.57;1.60;;;19.90;99.90;;;;;;5078390;28;20078;-65
2022/08/28 08:24:47;;;;;;;6.35;1.73;;;19.60;99.90;;;;;;5072606;28;20062;-64
2022/08/28 08:27:13;;;;;;;4.85;2.00;;;19.30;99.90;;;;;;5095957;28;20051;-66
2022/08/28 08:29:39;;;;;;;5.88;1.88;;;19.10;99.90;;;;;;5061133;28;20036;-64
2022/08/28 08:32:09;;;;;;;5.88;1.60;;;19.00;99.90;;;;;;5077852;28;20114;-64
2022/08/28 08:34:41;;;;;;;5.43;1.88;;;19.40;99.90;;;;;;5078022;28;20036;-64
2022/08/28 08:37:08;;;;;;;4.25;1.70;;;19.90;99.90;;;;;;5076621;28;20044;-66
2022/08/28 08:39:35;;;;;;;3.28;1.40;;;20.50;99.90;;;;;;5077656;28;20048;-64
2022/08/28 08:42:04;;;;;;;5.22;1.58;;;20.80;99.90;;;;;;5095527;28;20097;-64
2022/08/28 08:44:40;;;;;;;7.10;1.50;;;20.80;99.90;;;;;;5075373;28;20392;-63
2022/08/28 08:47:12;;;;;;;5.80;1.77;;;20.60;99.90;;;;;;5076241;28;20082;-63
2022/08/28 08:49:53;;;;;;;4.30;1.50;;;20.40;99.90;;;;;;5077401;28;20485;-64
2022/08/28 08:52:36;;;;;;;5.53;2.08;;;20.50;99.90;;;;;;5077647;28;20419;-63
2022/08/28 08:55:18;;;;;;;4.57;1.10;;;21.10;99.90;;;;;;5095419;28;20037;-63
2022/08/28 08:57:47;;;;;;;5.53;1.70;;;21.40;99.90;;;;;;5077206;28;20040;-64
2022/08/28 09:00:14;;;;;;;5.28;1.40;;;21.30;99.90;;;;;;5095357;28;20039;-63
2022/08/28 09:02:47;;;;;;;6.38;2.05;;;21.10;99.90;;;;;;5095499;28;20046;-64
2022/08/28 09:05:17;;;;;;;4.35;1.58;;;21.30;99.90;;;;;;5095239;28;20036;-64
2022/08/28 09:07:56;;;;;;;3.78;1.60;;;21.80;99.90;;;;;;5073354;28;20049;-66
2022/08/28 09:10:23;;;;;;;4.43;1.35;;;22.20;99.90;;;;;;5074898;28;20045;-66
2022/08/28 09:13:39;;;;;;;4.65;1.48;;;22.50;99.90;;;;;;5074718;28;20041;-66
2022/08/28 09:16:16;;;;;;;5.22;1.88;;;22.70;99.90;;;;;;5049132;28;20557;-65
2022/08/28 09:18:42;;;;;;;4.50;1.08;;;23.00;99.40;;;;;;5054670;28;20588;-65
2022/08/28 09:21:08;;;;;;;3.80;1.20;;;23.10;99.30;;;;;;5053399;28;20041;-64
2022/08/28 09:23:34;;;;;;;4.70;1.38;;;23.50;98.70;;;;;;5054560;28;20051;-64
2022/08/28 09:26:07;;;;;;;5.57;1.90;;;23.60;97.30;;;;;;5054580;28;20052;-65
2022/08/28 09:28:43;;;;;;;2.80;1.30;;;23.40;96.10;;;;;;5053109;28;20049;-64
2022/08/28 09:31:15;;;;;;;5.28;1.23;;;22.70;96.50;;;;;;5054586;28;20044;-64
2022/08/28 09:33:46;;;;;;;5.75;1.67;;;21.90;96.20;;;;;;5053611;28;20430;-64
2022/08/28 09:36:34;;;;;;;5.20;1.60;;;21.40;97.40;;;;;;5053576;28;20385;-64
2022/08/28 09:39:12;;;;;;;4.97;1.40;;;21.50;99.20;;;;;;5054435;28;20040;-64
2022/08/28 09:44:49;;;;;;;4.57;1.30;;;22.40;98.30;;;;;;5049958;28;20314;-64
2022/08/28 09:47:44;;;;;;;5.07;1.10;;;22.90;98.50;;;;;;5054719;28;20056;-66
2022/08/28 09:50:23;;;;;;;5.05;1.75;;;23.30;96.90;;;;;;5056396;28;20036;-66
2022/08/28 09:52:51;;;;;;;5.80;1.55;;;23.30;96.50;;;;;;5072778;28;20381;-64
2022/08/28 09:55:41;;;;;;;6.15;1.30;;;23.20;95.90;;;;;;5072952;28;20025;-64
2022/08/28 09:58:08;;;;;;;3.55;1.58;;;22.70;94.60;;;;;;5072837;28;20041;-64
2022/08/28 10:00:39;;;;;;;3.75;1.70;;;22.10;94.70;;;;;;5073008;28;20044;-64
2022/08/28 10:03:20;;;;;;;6.13;1.45;;;21.90;95.50;;;;;;5064200;28;20049;-65
2022/08/28 10:06:20;;;;;;;5.05;1.38;;;22.00;95.60;;;;;;5057029;28;20452;-65
2022/08/28 10:09:03;;;;;;;5.90;1.65;;;22.50;95.20;;;;;;5075852;28;20055;-65
2022/08/28 10:12:14;;;;;;;5.43;1.63;;;23.00;94.50;;;;;;5076112;28;20036;-65
2022/08/28 10:14:43;;;;;;;5.43;1.50;;;23.10;93.60;;;;;;5073331;28;20055;-64
2022/08/28 10:17:38;;;;;;;4.40;1.60;;;23.30;93.30;;;;;;5059032;28;20071;-66
2022/08/28 10:20:12;;;;;;;5.35;1.88;;;23.80;94.00;;;;;;5037741;28;20036;-64
2022/08/28 10:22:56;;;;;;;5.15;1.83;;;23.70;92.10;;;;;;5057765;28;20044;-65
2022/08/28 10:26:10;;;;;;;7.90;1.83;;;23.00;91.70;;;;;;5075234;28;20048;-66
2022/08/28 10:32:34;;;;;;;8.70;1.58;;;21.50;93.10;;;;;;4972060;28;20074;-65
2022/08/28 10:35:31;;;;;;;5.68;2.40;;;21.10;94.30;;;;;;4990596;28;20145;-65
2022/08/28 10:38:15;;;;;;;5.45;1.70;;;21.60;95.20;;;;;;5090520;28;20405;-68
2022/08/28 10:41:02;;;;;;;6.15;1.95;;;22.10;94.80;;;;;;5075191;28;20414;-65
2022/08/28 10:43:36;;;;;;;3.20;1.27;;;22.80;95.30;;;;;;5075198;28;20481;-65
2022/08/28 10:46:35;;;;;;;3.50;1.52;;;23.10;93.40;;;;;;5056316;28;20136;-66
2022/08/28 10:49:21;;;;;;;;;;;22.70;92.70;;;;;;5093663;28;20512;-67
2022/08/28 10:51:53;;;;;;;2.90;1.33;;;22.50;93.80;;;;;;5075097;28;19923;-65
2022/08/28 10:54:27;;;;;;;4.80;1.67;;;23.10;93.70;;;;;;5093645;28;20101;-66
2022/08/28 10:56:59;;;;;;;5.30;1.75;;;23.70;92.60;;;;;;5075462;28;20043;-67
2022/08/28 10:59:29;;;;;;;4.40;1.42;;;24.20;91.20;;;;;;5075091;28;20039;-68
2022/08/28 11:01:57;;;;;;;4.30;1.73;;;24.00;90.10;;;;;;5075074;28;20048;-65
2022/08/28 11:04:27;;;;;;;3.45;1.33;;;23.50;88.50;;;;;;5093143;28;20460;-66
2022/08/28 11:07:19;;;;;;;5.35;1.60;;;22.80;88.50;;;;;;5074811;28;20059;-64
2022/08/28 11:09:48;;;;;;;6.53;2.13;;;22.30;90.30;;;;;;5092464;28;20052;-67
2022/08/28 11:12:19;;;;;;;4.60;1.50;;;22.60;91.30;;;;;;5093201;28;20036;-65
2022/08/28 11:14:48;;;;;;;2.92;1.23;;;23.10;90.90;;;;;;5090799;28;20432;-65
2022/08/28 11:17:26;;;;;;;5.65;1.83;;;23.70;90.40;;;;;;5073632;28;20507;-65
2022/08/28 11:20:23;;;;;;;2.92;1.42;;;24.10;89.30;;;;;;5058191;28;20070;-66
2022/08/28 11:22:52;;;;;;;4.90;1.42;;;24.50;86.20;;;;;;5062882;28;20052;-65
2022/08/28 11:25:27;;;;;;;4.20;1.25;;;24.20;80.80;;;;;;5074542;28;20044;-67
2022/08/28 11:28:21;;;;;;;5.63;2.13;;;23.40;81.00;;;;;;5074433;28;20044;-66
2022/08/28 11:31:04;;;;;;;3.70;1.45;;;22.60;83.20;;;;;;5092650;28;20388;-65
2022/08/28 11:33:46;;;;;;;2.72;1.17;;;22.80;86.40;;;;;;5074708;28;20075;-67
2022/08/28 11:36:21;;;;;;;4.40;1.45;;;23.30;84.40;;;;;;5074585;28;20078;-66
2022/08/28 11:38:53;;;;;;;3.33;1.25;;;23.50;81.10;;;;;;5057984;28;20055;-65
2022/08/28 11:41:23;;;;;;;3.67;1.58;;;23.70;81.50;;;;;;5092720;28;20040;-65
2022/08/28 11:44:13;;;;;;;3.67;1.13;;;24.00;82.60;;;;;;5074755;28;20040;-67
2022/08/28 11:46:46;;;;;;;3.47;1.50;;;24.10;81.60;;;;;;5052783;28;20048;-65
2022/08/28 11:49:30;;;;;;;4.88;1.25;;;24.30;81.60;;;;;;5074578;28;20342;-65
2022/08/28 11:52:21;;;;;;;3.35;1.20;;;24.70;82.00;;;;;;5074799;28;20044;-65
2022/08/28 11:54:49;;;;;;;3.20;1.30;;;24.40;77.10;;;;;;5057913;28;20051;-65
2022/08/28 11:57:24;;;;;;;6.55;1.42;;;23.60;77.30;;;;;;5092670;28;20097;-64
2022/08/28 12:00:22;;;;;;;5.03;1.42;;;23.10;80.10;;;;;;5057776;28;20051;-66
2022/08/28 12:03:22;;;;;;;4.82;1.23;;;23.20;81.60;;;;;;5074780;28;20494;-66
2022/08/28 12:05:53;;;;;;;4.35;1.38;;;23.40;81.10;;;;;;5021684;28;20048;-65
2022/08/28 12:08:43;;;;;;;6.22;2.00;;;23.50;79.30;;;;;;5074334;28;20044;-64
2022/08/28 12:11:31;;;;;;;4.03;1.75;;;23.20;78.40;;;;;;5073962;28;20040;-64
2022/08/28 12:13:57;;;;;;;5.75;1.60;;;22.60;79.40;;;;;;5039242;28;20040;-66
2022/08/28 12:16:23;;;;;;;3.17;1.30;;;22.00;82.40;;;;;;5073909;28;20059;-64
2022/08/28 12:18:49;;;;;;;3.22;1.77;;;22.00;83.30;;;;;;5074268;28;20044;-64
2022/08/28 12:21:20;;;;;;;4.78;1.58;;;22.20;84.10;;;;;;5075300;28;20047;-65
2022/08/28 12:24:11;;;;;;;3.22;1.23;;;22.20;83.10;;;;;;5096170;28;20388;-66
2022/08/28 12:26:46;;;;;;;6.05;1.85;;;21.90;82.70;;;;;;5096123;28;20123;-65
2022/08/28 12:29:30;;;;;;;3.85;1.40;;;21.50;85.20;;;;;;5077831;28;20546;-65
2022/08/28 12:32:11;;;;;;;4.35;1.50;;;21.60;88.10;;;;;;5077887;28;20065;-64
2022/08/28 12:35:02;;;;;;;5.72;1.60;;;21.80;88.30;;;;;;5078039;28;20097;-64
2022/08/28 12:37:38;;;;;;;5.88;1.65;;;22.20;87.60;;;;;;5061092;28;20055;-65
2022/08/28 12:40:20;;;;;;;7.32;1.80;;;22.50;87.50;;;;;;5095956;28;20044;-65
2022/08/28 12:43:03;;;;;;;5.18;1.73;;;22.60;86.80;;;;;;5077647;28;20040;-65
2022/08/28 12:45:50;;;;;;;4.30;1.27;;;22.50;86.70;;;;;;5093839;28;20055;-66
2022/08/28 12:48:21;;;;;;;6.18;1.50;;;22.20;86.20;;;;;;5077660;28;20044;-65
2022/08/28 12:50:47;;;;;;;5.07;1.58;;;21.70;86.10;;;;;;5095632;28;20048;-64
2022/08/28 12:53:16;;;;;;;2.67;1.30;;;21.30;86.50;;;;;;5077622;28;20047;-64
2022/08/28 12:55:44;;;;;;;4.95;1.67;;;20.90;89.10;;;;;;5077453;28;20051;-65
2022/08/28 12:58:27;;;;;;;6.40;1.30;;;21.00;90.00;;;;;;5061052;28;20038;-64
2022/08/28 13:00:58;;;;;;;4.40;1.42;;;21.20;90.20;;;;;;5077631;28;20101;-65
2022/08/28 13:03:24;;;;;;;2.72;1.05;;;21.50;88.00;;;;;;5095267;28;20032;-65
2022/08/28 13:06:01;;;;;;;3.08;1.15;;;21.60;85.20;;;;;;5077453;28;20079;-66
2022/08/28 13:08:27;;;;;;;5.35;1.50;;;21.50;84.60;;;;;;5077108;28;20132;-65
2022/08/28 13:10:53;;;;;;;3.17;1.50;;;21.60;84.40;;;;;;5077318;28;20062;-64
2022/08/28 13:13:45;;;;;;;2.40;1.35;;;21.80;85.80;;;;;;5060274;28;20040;-65